Terminal Aerodrome Forecast
Issued by NWS Omaha/Valley, NE

Home | Current Version | Previous Version | Text Only | Print | Product List | Glossary On
Versions: 1 2 3 4 5 6 7 8 9 10 11 12 13 14 15 16 17 18 19 20
000
FTUS43 KOAX 252320
TAFOFK
TAF
KOFK 252320Z 2600/2624 12006KT P6SM SKC
     FM260800 13005KT P6SM SCT040
     FM261000 13008KT P6SM SCT015 WS010/15040KT
     FM261300 15011KT P6SM SCT015
      TEMPO 2613/2617 4SM BR BKN015
     FM261800 17012KT P6SM SCT025=

USA.gov is the U.S. government's official web portal to all federal, state and local government web resources and services.